CYYJ/YYJ METAR and TAF weather

Enter ICAO airport designator
Station Type Date Time Source
CYYJ METAR 2019/02/23 16:00 UTC NOAA

CYYJ 231600Z 11004KT 070V150 15SM -SHRA FEW030 BKN048 BKN062 03/01 A3006 RMK SC2SC3SC2 CVCTV CLD EMBD SLP181


Station Type Date Time Source
CYYJ Decoded METAR 2019/02/23 16:00 UTC NOAA

Victoria Int. Airport, B. C., Canada (CYYJ) 48-39N 123-26W 19M
Feb 23, 2019 - 11:00 AM EST / 2019.02.23 1600 UTC
Wind: from the ESE (110 degrees) at 5 MPH (4 KT) (direction variable):0
Visibility: 15 mile(s):0
Sky conditions: mostly cloudy
Weather: light rain showers
Temperature: 37 F (3 C)
Dew Point: 33 F (1 C)
Relative Humidity: 86%
Pressure (altimeter): 30.06 in. Hg (1017 hPa)
ob: CYYJ 231600Z 11004KT 070V150 15SM -SHRA FEW030 BKN048 BKN062 03/01 A3006 RMK SC2SC3SC2 CVCTV CLD EMBD SLP181
cycle: 16

Station Type Date Time Source
CYYJ TAF 2019/02/23 12:39 UTC NOAA

TAF CYYJ 231138Z 2312/2412 23005KT P6SM SCT070 BKN120
TEMPO 2312/2318 3SM -SHRASN BR SCT020 BKN070
BECMG 2316/2318 15012KT
FM231800 15012KT P6SM SCT020 SCT050
TEMPO 2318/2406 P6SM -SHRA BKN020 BKN050
FM240600 11010G20KT P6SM -SHRA BKN015 BKN040
RMK NXT FCST BY 231800Z


Example: see airport list